Terminal Aerodrome Forecast
Issued by NWS

Home | Current Version | Previous Version | Text Only | Print | Product List | Glossary On
Versions: 1 2 3 4 5 6 7 8 9 10 11 12 13 14 15 16 17 18
000
FTUS41 KCLE 221500 AAB
TAFFDY
TAF AMD
KFDY 221500Z 2215/2312 21014G22KT P6SM OVC050
      TEMPO 2215/2218 -RA BKN025
     FM221800 22014G24KT P6SM VCSH SCT020 BKN050 OVC080
     FM222100 20010KT P6SM OVC040=

USA.gov is the U.S. government's official web portal to all federal, state and local government web resources and services.